Time;durP1;ratioP1;P1;durP2;ratioP2;P2;SDS_P1;SDS_P2;PMS_P1;PMS_P2;Temp;Humidity;BMP_temperature;BMP_pressure;BME280_temperature;BME280_humidity;BME280_pressure;Samples;Min_cycle;Max_cycle;Signal;HPM_P1;HPM_P2
2021/12/29 00:01:25;;;;;;;25.65;8.00;;;;;;;;;;5052115;28;20020;-88
2021/12/29 00:03:51;;;;;;;17.77;7.38;;;;;;;;;;5085692;28;20472;-88
2021/12/29 00:06:16;;;;;;;22.38;8.05;;;;;;;;;;5051674;28;20029;-89
2021/12/29 00:08:41;;;;;;;17.83;7.23;;;;;;;;;;5053094;28;20021;-88
2021/12/29 00:11:07;;;;;;;16.50;7.20;;;;;;;;;;5055843;28;20020;-88
2021/12/29 00:13:32;;;;;;;24.45;7.60;;;;;;;;;;5056012;28;20380;-88
2021/12/29 00:15:58;;;;;;;17.13;6.75;;;;;;;;;;5055638;28;20025;-89
2021/12/29 00:18:27;;;;;;;16.30;6.40;;;;;;;;;;5055816;28;20031;-88
2021/12/29 00:20:53;;;;;;;17.25;6.78;;;;;;;;;;5055638;28;20499;-88
2021/12/29 00:23:18;;;;;;;21.80;6.67;;;;;;;;;;5055821;28;20052;-89
2021/12/29 00:25:43;;;;;;;27.27;6.20;;;;;;;;;;5055066;28;20477;-89
2021/12/29 00:28:08;;;;;;;16.23;6.00;;;;;;;;;;5055606;28;20471;-89
2021/12/29 00:30:34;;;;;;;20.98;5.88;;;;;;;;;;5055571;28;20065;-88
2021/12/29 00:32:59;;;;;;;13.07;5.40;;;;;;;;;;5055681;28;20457;-89
2021/12/29 00:35:24;;;;;;;16.67;6.30;;;;;;;;;;5055251;28;20052;-89
2021/12/29 00:37:50;;;;;;;18.00;5.50;;;;;;;;;;5061695;28;20024;-88
2021/12/29 00:40:15;;;;;;;15.00;5.13;;;;;;;;;;5070244;28;20453;-89
2021/12/29 00:42:41;;;;;;;18.93;6.23;;;;;;;;;;5055325;28;20392;-89
2021/12/29 00:45:06;;;;;;;26.05;5.85;;;;;;;;;;5055242;28;20111;-89
2021/12/29 00:47:33;;;;;;;14.88;5.50;;;;;;;;;;5054902;28;20025;-88
2021/12/29 00:49:59;;;;;;;18.02;5.72;;;;;;;;;;5055294;28;20502;-88
2021/12/29 00:52:24;;;;;;;16.65;6.25;;;;;;;;;;5056419;28;20013;-88
2021/12/29 00:54:50;;;;;;;20.92;6.00;;;;;;;;;;5054903;28;20035;-88
2021/12/29 00:57:15;;;;;;;13.50;5.65;;;;;;;;;;5055147;28;20025;-89
2021/12/29 00:59:40;;;;;;;14.65;5.78;;;;;;;;;;5056244;28;20025;-88
2021/12/29 01:02:06;;;;;;;16.88;6.15;;;;;;;;;;5054975;28;20060;-88
2021/12/29 01:04:31;;;;;;;15.75;5.38;;;;;;;;;;5056072;28;20049;-89
2021/12/29 01:06:56;;;;;;;30.42;5.10;;;;;;;;;;5055043;28;20102;-89
2021/12/29 01:09:22;;;;;;;15.13;5.20;;;;;;;;;;5054915;28;20048;-89
2021/12/29 01:11:47;;;;;;;13.77;5.88;;;;;;;;;;5054910;28;20017;-89
2021/12/29 01:14:13;;;;;;;15.55;5.43;;;;;;;;;;5054814;28;20025;-89
2021/12/29 01:16:38;;;;;;;20.63;5.18;;;;;;;;;;5054665;28;20028;-89
2021/12/29 01:19:06;;;;;;;14.27;5.32;;;;;;;;;;5054550;28;20556;-89
2021/12/29 01:21:34;;;;;;;17.53;6.53;;;;;;;;;;5053890;28;20029;-88
2021/12/29 01:24:00;;;;;;;24.17;5.50;;;;;;;;;;5055566;28;20043;-89
2021/12/29 01:26:25;;;;;;;14.03;5.87;;;;;;;;;;5054181;28;20468;-88
2021/12/29 01:28:50;;;;;;;13.30;5.20;;;;;;;;;;5054669;28;20465;-89
2021/12/29 01:31:15;;;;;;;11.93;5.70;;;;;;;;;;5054454;28;20037;-89
2021/12/29 01:33:41;;;;;;;15.93;5.33;;;;;;;;;;5055632;28;20013;-89
2021/12/29 01:36:06;;;;;;;14.52;5.28;;;;;;;;;;5054423;28;20017;-88
2021/12/29 01:38:31;;;;;;;20.23;5.80;;;;;;;;;;5054033;28;20032;-88
2021/12/29 01:40:56;;;;;;;17.27;5.00;;;;;;;;;;5054318;28;20025;-88
2021/12/29 01:43:22;;;;;;;10.13;5.20;;;;;;;;;;5060905;28;20479;-88
2021/12/29 01:45:47;;;;;;;15.73;5.67;;;;;;;;;;5075387;28;20070;-89
2021/12/29 01:48:12;;;;;;;13.17;5.27;;;;;;;;;;5075335;28;20131;-88
2021/12/29 01:50:39;;;;;;;12.30;5.22;;;;;;;;;;5075597;28;20021;-88
2021/12/29 01:53:10;;;;;;;14.95;4.88;;;;;;;;;;5073599;28;20111;-88
2021/12/29 01:55:37;;;;;;;14.73;5.23;;;;;;;;;;5055193;28;20375;-89
2021/12/29 01:58:02;;;;;;;16.97;5.10;;;;;;;;;;5054120;28;20024;-89
2021/12/29 02:00:29;;;;;;;11.13;4.87;;;;;;;;;;5054048;28;20021;-89
2021/12/29 02:02:54;;;;;;;12.00;4.97;;;;;;;;;;5057105;28;20056;-89
2021/12/29 02:05:20;;;;;;;17.10;4.40;;;;;;;;;;5053927;28;20033;-89
2021/12/29 02:07:45;;;;;;;18.13;4.63;;;;;;;;;;5053765;28;20448;-89
2021/12/29 02:10:12;;;;;;;10.63;4.10;;;;;;;;;;5053697;28;20013;-89
2021/12/29 02:12:37;;;;;;;10.60;4.13;;;;;;;;;;5055099;28;20377;-89
2021/12/29 02:15:04;;;;;;;18.75;4.40;;;;;;;;;;5053901;28;20017;-88
2021/12/29 02:17:29;;;;;;;9.23;3.53;;;;;;;;;;5054636;28;20460;-89
2021/12/29 02:20:02;;;;;;;12.50;4.65;;;;;;;;;;5053174;28;20106;-88
2021/12/29 02:25:08;;;;;;;11.90;3.97;;;;;;;;;;5054906;28;20028;-88
2021/12/29 02:27:35;;;;;;;8.73;4.17;;;;;;;;;;5053444;28;20483;-87
2021/12/29 02:30:00;;;;;;;9.03;4.10;;;;;;;;;;5052593;28;20803;-89
2021/12/29 02:32:25;;;;;;;9.30;3.80;;;;;;;;;;5086405;28;20021;-89
2021/12/29 02:34:51;;;;;;;7.70;3.70;;;;;;;;;;5086995;28;20457;-89
2021/12/29 02:37:19;;;;;;;9.90;3.85;;;;;;;;;;5086588;28;20423;-89
2021/12/29 02:39:45;;;;;;;14.50;3.80;;;;;;;;;;5054061;28;20016;-89
2021/12/29 02:42:10;;;;;;;11.37;3.73;;;;;;;;;;5054421;28;20526;-89
2021/12/29 02:44:40;;;;;;;16.53;3.70;;;;;;;;;;5053000;28;20427;-89
2021/12/29 02:47:06;;;;;;;8.97;3.70;;;;;;;;;;5052988;28;20059;-88
2021/12/29 02:49:31;;;;;;;9.90;3.70;;;;;;;;;;5052972;28;20046;-89
2021/12/29 02:51:56;;;;;;;14.30;3.55;;;;;;;;;;5053322;28;20044;-89
2021/12/29 02:54:21;;;;;;;9.57;2.97;;;;;;;;;;5053804;28;20017;-89
2021/12/29 02:56:48;;;;;;;13.20;3.07;;;;;;;;;;5052886;28;20595;-89
2021/12/29 02:59:14;;;;;;;10.43;3.17;;;;;;;;;;5052831;28;20061;-89
2021/12/29 03:01:39;;;;;;;14.03;3.10;;;;;;;;;;5053910;28;20114;-89
2021/12/29 03:04:05;;;;;;;6.47;3.20;;;;;;;;;;5052707;28;20021;-89
2021/12/29 03:06:30;;;;;;;7.80;3.20;;;;;;;;;;5052848;28;20027;-88
2021/12/29 03:08:56;;;;;;;8.70;3.55;;;;;;;;;;5052724;28;20017;-89
2021/12/29 03:11:21;;;;;;;10.80;3.60;;;;;;;;;;5052761;28;20078;-89
2021/12/29 03:13:47;;;;;;;11.47;3.80;;;;;;;;;;5053644;28;20016;-89
2021/12/29 03:16:13;;;;;;;10.70;3.30;;;;;;;;;;5053641;28;20009;-88
2021/12/29 03:18:39;;;;;;;11.73;3.70;;;;;;;;;;5052698;28;20112;-89
2021/12/29 03:21:04;;;;;;;10.00;3.90;;;;;;;;;;5052550;28;20452;-89
2021/12/29 03:23:30;;;;;;;15.57;3.73;;;;;;;;;;5052370;28;20411;-88
2021/12/29 03:25:56;;;;;;;16.70;4.37;;;;;;;;;;5052201;28;20115;-89
2021/12/29 03:28:22;;;;;;;9.07;3.50;;;;;;;;;;5053634;28;20112;-89
2021/12/29 03:30:50;;;;;;;11.05;3.90;;;;;;;;;;5052395;28;20471;-89
2021/12/29 03:33:16;;;;;;;8.23;3.50;;;;;;;;;;5052232;28;20468;-89
2021/12/29 03:35:46;;;;;;;9.43;4.10;;;;;;;;;;5053582;28;20014;-89
2021/12/29 03:38:13;;;;;;;8.43;3.42;;;;;;;;;;5053393;28;20025;-89
2021/12/29 03:40:38;;;;;;;11.95;3.45;;;;;;;;;;5052455;28;20031;-89
2021/12/29 03:43:04;;;;;;;8.23;3.88;;;;;;;;;;5052430;28;20115;-89
2021/12/29 03:45:29;;;;;;;6.63;3.38;;;;;;;;;;5056353;28;20029;-89
2021/12/29 03:47:55;;;;;;;10.55;3.75;;;;;;;;;;5056308;28;20029;-89
2021/12/29 03:50:21;;;;;;;12.57;4.00;;;;;;;;;;5056409;28;20024;-89
2021/12/29 03:52:46;;;;;;;8.40;4.13;;;;;;;;;;5056322;28;20086;-89
2021/12/29 03:55:11;;;;;;;9.00;4.85;;;;;;;;;;5057611;28;20412;-89
2021/12/29 03:57:36;;;;;;;9.85;4.32;;;;;;;;;;5056289;28;20545;-89
2021/12/29 04:00:03;;;;;;;7.25;4.32;;;;;;;;;;5056079;28;20116;-89
2021/12/29 04:02:28;;;;;;;10.38;4.82;;;;;;;;;;5057483;28;20389;-89
2021/12/29 04:04:54;;;;;;;12.73;4.93;;;;;;;;;;5055923;28;20025;-89
2021/12/29 04:07:19;;;;;;;9.20;5.40;;;;;;;;;;5057191;28;20021;-89
2021/12/29 04:09:44;;;;;;;17.65;5.40;;;;;;;;;;5056085;28;20381;-89
2021/12/29 04:12:10;;;;;;;9.65;4.60;;;;;;;;;;5056202;28;20353;-88
2021/12/29 04:14:35;;;;;;;13.80;4.43;;;;;;;;;;5056998;28;20460;-89
2021/12/29 04:17:08;;;;;;;12.20;4.90;;;;;;;;;;5055786;28;20033;-89
2021/12/29 04:20:54;;;;;;;7.10;4.93;;;;;;;;;;5057174;28;20068;-89
2021/12/29 04:22:25;;;;;;;14.68;5.30;;;;;;;;;;5056963;28;20532;-89
2021/12/29 04:24:50;;;;;;;13.23;5.55;;;;;;;;;;5056888;28;20056;-89
2021/12/29 04:27:16;;;;;;;12.63;5.50;;;;;;;;;;5055562;28;20033;-89
2021/12/29 04:29:41;;;;;;;12.27;5.45;;;;;;;;;;5056782;28;20047;-89
2021/12/29 04:32:07;;;;;;;12.70;5.60;;;;;;;;;;5055793;28;20016;-89
2021/12/29 04:34:32;;;;;;;13.85;4.80;;;;;;;;;;5055759;28;20021;-89
2021/12/29 04:36:57;;;;;;;9.60;4.95;;;;;;;;;;5055692;28;20480;-89
2021/12/29 04:39:22;;;;;;;10.43;5.40;;;;;;;;;;5056726;28;20491;-89
2021/12/29 04:41:47;;;;;;;11.88;4.50;;;;;;;;;;5055563;28;20021;-89
2021/12/29 04:44:13;;;;;;;14.68;4.85;;;;;;;;;;5055575;28;20025;-89
2021/12/29 04:46:40;;;;;;;12.43;5.32;;;;;;;;;;5065348;28;20029;-89
2021/12/29 04:49:08;;;;;;;12.45;5.05;;;;;;;;;;5075196;28;20028;-89
2021/12/29 04:51:35;;;;;;;14.68;4.80;;;;;;;;;;5075382;28;20017;-89
2021/12/29 04:54:03;;;;;;;16.23;4.93;;;;;;;;;;5076685;28;20418;-89
2021/12/29 04:56:28;;;;;;;13.27;5.68;;;;;;;;;;5068933;28;20502;-89
2021/12/29 04:58:54;;;;;;;15.35;5.35;;;;;;;;;;5055188;28;20021;-89
2021/12/29 05:01:19;;;;;;;13.77;5.95;;;;;;;;;;5055281;28;20051;-89
2021/12/29 05:03:45;;;;;;;16.67;5.00;;;;;;;;;;5055210;28;20461;-89
2021/12/29 05:08:35;;;;;;;10.45;4.50;;;;;;;;;;5056254;28;20021;-88
2021/12/29 05:11:03;;;;;;;11.23;4.68;;;;;;;;;;5054956;28;20056;-89
2021/12/29 05:13:29;;;;;;;11.52;4.80;;;;;;;;;;5088670;28;20587;-89
2021/12/29 05:15:57;;;;;;;8.45;4.25;;;;;;;;;;5088606;28;20025;-89
2021/12/29 05:18:24;;;;;;;16.25;5.60;;;;;;;;;;5088500;28;20021;-89
2021/12/29 05:20:49;;;;;;;11.63;4.63;;;;;;;;;;5088482;28;20028;-89
2021/12/29 05:23:14;;;;;;;10.88;5.18;;;;;;;;;;5088376;28;20025;-88
2021/12/29 05:25:40;;;;;;;10.00;4.55;;;;;;;;;;5055641;28;20480;-89
2021/12/29 05:28:05;;;;;;;11.00;5.20;;;;;;;;;;5054595;28;20112;-89
2021/12/29 05:30:30;;;;;;;13.48;5.10;;;;;;;;;;5054702;28;20021;-89
2021/12/29 05:32:56;;;;;;;12.20;5.22;;;;;;;;;;5054624;28;20017;-89
2021/12/29 05:35:21;;;;;;;13.60;5.55;;;;;;;;;;5054571;28;20013;-89
2021/12/29 05:37:46;;;;;;;11.13;4.68;;;;;;;;;;5055639;28;20021;-89
2021/12/29 05:40:14;;;;;;;11.10;5.15;;;;;;;;;;5054575;28;20054;-89
2021/12/29 05:42:39;;;;;;;11.27;4.85;;;;;;;;;;5054526;28;20029;-89
2021/12/29 05:45:07;;;;;;;9.80;4.67;;;;;;;;;;5054562;28;20473;-89
2021/12/29 05:47:32;;;;;;;12.40;5.03;;;;;;;;;;5054215;28;20033;-89
2021/12/29 05:49:57;;;;;;;9.90;4.87;;;;;;;;;;5054429;28;20029;-89
2021/12/29 05:52:23;;;;;;;8.27;4.80;;;;;;;;;;5054381;28;20106;-89
2021/12/29 05:54:48;;;;;;;8.40;4.50;;;;;;;;;;5054117;28;20543;-89
2021/12/29 05:57:13;;;;;;;9.00;5.07;;;;;;;;;;5054153;28;20060;-89
2021/12/29 05:59:39;;;;;;;9.00;4.87;;;;;;;;;;5055433;28;20427;-89
2021/12/29 06:02:04;;;;;;;12.50;4.90;;;;;;;;;;5059922;28;20035;-89
2021/12/29 06:04:30;;;;;;;10.57;5.00;;;;;;;;;;5054048;28;20037;-89
2021/12/29 06:06:55;;;;;;;10.53;4.47;;;;;;;;;;5054733;28;20032;-89
2021/12/29 06:09:21;;;;;;;10.70;5.40;;;;;;;;;;5054057;28;20029;-89
2021/12/29 06:11:46;;;;;;;13.93;4.25;;;;;;;;;;5055129;28;20104;-89
2021/12/29 06:14:11;;;;;;;7.33;4.10;;;;;;;;;;5053971;28;20028;-89
2021/12/29 06:16:36;;;;;;;7.57;4.50;;;;;;;;;;5053709;28;20021;-89
2021/12/29 06:19:02;;;;;;;8.02;4.22;;;;;;;;;;5053573;28;20060;-89
2021/12/29 06:21:27;;;;;;;8.93;4.53;;;;;;;;;;5053794;28;20163;-89
2021/12/29 06:23:52;;;;;;;8.52;4.25;;;;;;;;;;5053651;28;20496;-89
2021/12/29 06:26:18;;;;;;;7.30;4.20;;;;;;;;;;5053458;28;20044;-89
2021/12/29 06:28:44;;;;;;;9.02;4.07;;;;;;;;;;5053633;28;20430;-89
2021/12/29 06:31:09;;;;;;;13.65;4.53;;;;;;;;;;5053537;28;20420;-89
2021/12/29 06:33:34;;;;;;;7.68;3.97;;;;;;;;;;5053641;28;20074;-89
2021/12/29 06:35:59;;;;;;;7.15;4.28;;;;;;;;;;5053434;28;20441;-89
2021/12/29 06:38:25;;;;;;;11.57;4.75;;;;;;;;;;5053401;28;20032;-89
2021/12/29 06:40:50;;;;;;;18.08;7.05;;;;;;;;;;5053161;28;20024;-89
2021/12/29 06:43:15;;;;;;;12.55;6.20;;;;;;;;;;5053303;28;20029;-89
2021/12/29 06:45:41;;;;;;;14.77;6.88;;;;;;;;;;5054343;28;20366;-89
2021/12/29 06:48:06;;;;;;;10.32;6.05;;;;;;;;;;5053132;28;20478;-89
2021/12/29 06:50:31;;;;;;;13.07;5.38;;;;;;;;;;5053251;28;20017;-89
2021/12/29 06:52:57;;;;;;;12.95;5.03;;;;;;;;;;5053275;28;20472;-89
2021/12/29 06:55:22;;;;;;;13.48;4.75;;;;;;;;;;5058904;28;20020;-89
2021/12/29 06:57:47;;;;;;;7.15;4.28;;;;;;;;;;5072974;28;20024;-89
2021/12/29 07:00:12;;;;;;;10.73;4.20;;;;;;;;;;5058986;28;20029;-89
2021/12/29 07:02:38;;;;;;;7.53;4.20;;;;;;;;;;5053923;28;20519;-89
2021/12/29 07:05:03;;;;;;;9.98;3.80;;;;;;;;;;5048068;28;20123;-89
2021/12/29 07:07:29;;;;;;;9.18;3.60;;;;;;;;;;5052411;28;20021;-89
2021/12/29 07:09:54;;;;;;;7.20;3.92;;;;;;;;;;5052411;28;20544;-89
2021/12/29 07:12:20;;;;;;;13.43;4.63;;;;;;;;;;5053867;28;20024;-89
2021/12/29 07:14:48;;;;;;;12.40;5.22;;;;;;;;;;5052515;28;20079;-89
2021/12/29 07:17:14;;;;;;;14.55;6.55;;;;;;;;;;5058613;28;20074;-90
2021/12/29 07:19:39;;;;;;;18.08;6.25;;;;;;;;;;5052196;28;20033;-90
2021/12/29 07:22:06;;;;;;;13.43;4.88;;;;;;;;;;5052950;28;20082;-90
2021/12/29 07:24:32;;;;;;;8.33;4.30;;;;;;;;;;5052791;28;20035;-91
2021/12/29 07:26:57;;;;;;;11.10;3.95;;;;;;;;;;5052744;28;20036;-90
2021/12/29 07:29:23;;;;;;;12.23;4.22;;;;;;;;;;5054434;28;20029;-90
2021/12/29 07:31:48;;;;;;;13.97;5.17;;;;;;;;;;5069661;28;20017;-90
2021/12/29 07:34:13;;;;;;;14.73;5.33;;;;;;;;;;5045468;28;20020;-89
2021/12/29 07:36:39;;;;;;;11.67;4.57;;;;;;;;;;5052846;28;20033;-90
2021/12/29 07:39:04;;;;;;;10.27;4.53;;;;;;;;;;5052624;28;20369;-90
2021/12/29 07:41:29;;;;;;;8.80;4.65;;;;;;;;;;5053748;28;20029;-90
2021/12/29 07:43:56;;;;;;;8.60;4.72;;;;;;;;;;5052282;28;20021;-91
2021/12/29 07:46:21;;;;;;;14.20;4.72;;;;;;;;;;5052575;28;20019;-92
2021/12/29 07:48:47;;;;;;;10.93;4.18;;;;;;;;;;5052422;28;20111;-91
2021/12/29 07:51:12;;;;;;;9.60;4.07;;;;;;;;;;5052609;28;20009;-91
2021/12/29 07:53:38;;;;;;;9.02;4.28;;;;;;;;;;5053320;28;20017;-91
2021/12/29 07:56:04;;;;;;;13.93;4.22;;;;;;;;;;5052658;28;20021;-90
2021/12/29 07:58:30;;;;;;;15.93;6.40;;;;;;;;;;5054251;28;20021;-90
2021/12/29 08:00:55;;;;;;;16.70;7.55;;;;;;;;;;5053586;28;20029;-91
2021/12/29 08:03:20;;;;;;;12.57;5.13;;;;;;;;;;5057270;28;20024;-91
2021/12/29 08:05:45;;;;;;;16.60;6.32;;;;;;;;;;5045403;28;20022;-91
2021/12/29 08:08:11;;;;;;;49.80;24.60;;;;;;;;;;5034514;28;20014;-92
2021/12/29 08:10:37;;;;;;;16.50;7.50;;;;;;;;;;5067106;28;20529;-90
2021/12/29 08:13:04;;;;;;;14.50;3.60;;;;;;;;;;5050552;28;20018;-91
2021/12/29 08:15:29;;;;;;;7.93;3.25;;;;;;;;;;5051654;28;20017;-91
2021/12/29 08:17:56;;;;;;;13.85;3.78;;;;;;;;;;5043537;28;20104;-90
2021/12/29 08:20:21;;;;;;;9.85;2.70;;;;;;;;;;5068715;28;20468;-90
2021/12/29 08:22:47;;;;;;;12.77;3.03;;;;;;;;;;5059110;28;20096;-91
2021/12/29 08:25:12;;;;;;;11.43;2.90;;;;;;;;;;5053795;28;20025;-91
2021/12/29 08:27:38;;;;;;;8.07;2.53;;;;;;;;;;5052932;28;20032;-90
2021/12/29 08:30:05;;;;;;;7.90;2.47;;;;;;;;;;5053758;28;20472;-89
2021/12/29 08:32:30;;;;;;;12.38;2.80;;;;;;;;;;5089817;28;20017;-89
2021/12/29 08:34:56;;;;;;;14.47;4.50;;;;;;;;;;5060618;28;20020;-90
2021/12/29 08:37:21;;;;;;;19.70;7.30;;;;;;;;;;5075669;28;20034;-90
2021/12/29 08:39:46;;;;;;;15.90;5.20;;;;;;;;;;5064722;28;20021;-89
2021/12/29 08:42:12;;;;;;;7.65;3.33;;;;;;;;;;5066974;28;20020;-90
2021/12/29 08:44:37;;;;;;;15.60;4.70;;;;;;;;;;5059484;28;20028;-89
2021/12/29 08:47:03;;;;;;;21.20;4.95;;;;;;;;;;5053174;28;20086;-90
2021/12/29 08:49:28;;;;;;;14.00;3.22;;;;;;;;;;5088780;28;20059;-90
2021/12/29 08:51:53;;;;;;;9.10;2.72;;;;;;;;;;5055572;28;20035;-92
2021/12/29 08:54:18;;;;;;;13.18;3.22;;;;;;;;;;5089034;28;20056;-90
2021/12/29 08:56:43;;;;;;;6.18;2.63;;;;;;;;;;5088643;28;20033;-90
2021/12/29 08:59:10;;;;;;;10.50;3.37;;;;;;;;;;5050970;28;20036;-90
2021/12/29 09:01:35;;;;;;;6.20;3.22;;;;;;;;;;5088102;28;20029;-90
2021/12/29 09:04:00;;;;;;;10.27;2.55;;;;;;;;;;5057276;28;20013;-91
2021/12/29 09:06:25;;;;;;;13.90;2.40;;;;;;;;;;5051274;28;20025;-89
2021/12/29 09:08:51;;;;;;;6.88;2.28;;;;;;;;;;5055171;28;20025;-91
2021/12/29 09:11:16;;;;;;;4.95;2.28;;;;;;;;;;5048436;28;20391;-91
2021/12/29 09:13:41;;;;;;;9.55;2.42;;;;;;;;;;5069317;28;20465;-91
2021/12/29 09:16:07;;;;;;;9.00;2.55;;;;;;;;;;5086241;28;20100;-91
2021/12/29 09:18:33;;;;;;;13.23;2.35;;;;;;;;;;5062421;28;20025;-92
2021/12/29 09:21:06;;;;;;;14.43;2.83;;;;;;;;;;5061052;28;20546;-91
2021/12/29 09:23:32;;;;;;;13.23;3.15;;;;;;;;;;5075303;28;20094;-93
2021/12/29 09:25:57;;;;;;;11.48;2.47;;;;;;;;;;5065435;28;20043;-92
2021/12/29 09:28:22;;;;;;;7.90;2.22;;;;;;;;;;5055116;28;20025;-92
2021/12/29 09:30:48;;;;;;;11.48;2.78;;;;;;;;;;5055293;28;20028;-93
2021/12/29 09:33:16;;;;;;;7.90;2.40;;;;;;;;;;5055052;28;20067;-91
2021/12/29 09:35:41;;;;;;;7.70;2.30;;;;;;;;;;5055166;28;20024;-92
2021/12/29 09:38:07;;;;;;;9.75;2.72;;;;;;;;;;5072481;28;20016;-93
2021/12/29 09:40:33;;;;;;;9.60;3.08;;;;;;;;;;5074809;28;20502;-91
2021/12/29 09:42:59;;;;;;;5.95;2.42;;;;;;;;;;5055796;28;20025;-92
2021/12/29 09:45:25;;;;;;;17.30;2.15;;;;;;;;;;5054269;28;20029;-92
2021/12/29 09:47:50;;;;;;;10.07;2.47;;;;;;;;;;5054514;28;20480;-92
2021/12/29 09:50:17;;;;;;;10.90;2.65;;;;;;;;;;5087818;28;20021;-93
2021/12/29 09:52:43;;;;;;;15.38;3.08;;;;;;;;;;5055281;28;20013;-91
2021/12/29 09:55:10;;;;;;;13.45;2.58;;;;;;;;;;5054654;28;20027;-93
2021/12/29 09:57:36;;;;;;;10.07;2.47;;;;;;;;;;5057183;28;20082;-93
2021/12/29 10:00:06;;;;;;;15.80;2.53;;;;;;;;;;5064508;28;20119;-92
2021/12/29 10:02:31;;;;;;;11.07;2.65;;;;;;;;;;5092505;28;20012;-93
2021/12/29 10:04:58;;;;;;;12.10;2.40;;;;;;;;;;5058153;28;20076;-92
2021/12/29 10:07:25;;;;;;;11.45;2.10;;;;;;;;;;5081909;28;20017;-92
2021/12/29 10:09:51;;;;;;;10.18;2.17;;;;;;;;;;5066937;28;20495;-91
2021/12/29 10:12:22;;;;;;;10.75;2.33;;;;;;;;;;5087605;28;20017;-91
2021/12/29 10:14:51;;;;;;;11.10;2.33;;;;;;;;;;5054125;28;20021;-91
2021/12/29 10:17:17;;;;;;;14.93;2.65;;;;;;;;;;5069194;28;20028;-91
2021/12/29 10:19:43;;;;;;;11.43;2.92;;;;;;;;;;5074026;28;20021;-91
2021/12/29 10:22:18;;;;;;;8.30;2.30;;;;;;;;;;5055485;28;20440;-92
2021/12/29 10:24:43;;;;;;;8.45;2.42;;;;;;;;;;5054041;28;20033;-91
2021/12/29 10:27:14;;;;;;;17.45;2.80;;;;;;;;;;5054586;28;20025;-91
2021/12/29 10:29:40;;;;;;;13.20;2.72;;;;;;;;;;5087368;28;20024;-91
2021/12/29 10:32:06;;;;;;;16.55;3.50;;;;;;;;;;5066435;28;20008;-91
2021/12/29 10:34:32;;;;;;;23.77;3.90;;;;;;;;;;5059893;28;20012;-89
2021/12/29 10:37:08;;;;;;;15.40;4.15;;;;;;;;;;5054726;28;20017;-92
2021/12/29 10:39:35;;;;;;;15.73;3.85;;;;;;;;;;5058290;28;20020;-92
2021/12/29 10:42:01;;;;;;;9.75;2.83;;;;;;;;;;5087026;28;20135;-92
2021/12/29 10:44:33;;;;;;;12.38;3.10;;;;;;;;;;5072895;28;20062;-92
2021/12/29 10:46:59;;;;;;;13.43;3.45;;;;;;;;;;5055711;28;20029;-92
2021/12/29 10:49:25;;;;;;;13.30;3.05;;;;;;;;;;5053837;28;20465;-93
2021/12/29 10:51:51;;;;;;;9.35;2.75;;;;;;;;;;5052457;28;20474;-93
2021/12/29 10:54:19;;;;;;;11.10;2.47;;;;;;;;;;5086203;28;20016;-93
2021/12/29 10:56:45;;;;;;;10.80;2.78;;;;;;;;;;5087126;28;20492;-93
2021/12/29 10:59:11;;;;;;;25.63;2.85;;;;;;;;;;5053507;28;20017;-92
2021/12/29 11:01:36;;;;;;;23.02;2.60;;;;;;;;;;5056784;28;20017;-91
2021/12/29 11:04:03;;;;;;;21.38;3.08;;;;;;;;;;5057242;28;20495;-91
2021/12/29 11:06:28;;;;;;;9.88;2.47;;;;;;;;;;5061500;28;20025;-92
2021/12/29 11:08:55;;;;;;;14.25;2.78;;;;;;;;;;5053276;28;20026;-90
2021/12/29 11:11:26;;;;;;;17.50;2.65;;;;;;;;;;5053326;28;20066;-90
2021/12/29 11:13:53;;;;;;;13.93;2.03;;;;;;;;;;5067814;28;20020;-90
2021/12/29 11:16:19;;;;;;;12.50;2.35;;;;;;;;;;5064196;28;20046;-91
2021/12/29 11:18:49;;;;;;;12.20;2.80;;;;;;;;;;5059959;28;20111;-90
2021/12/29 11:21:28;;;;;;;10.15;2.42;;;;;;;;;;5050468;28;20469;-90
2021/12/29 11:23:54;;;;;;;12.90;2.17;;;;;;;;;;5052142;28;20049;-90
2021/12/29 11:26:32;;;;;;;11.45;2.20;;;;;;;;;;5095394;28;20059;-91
2021/12/29 11:29:05;;;;;;;13.05;2.50;;;;;;;;;;5058271;28;20107;-91
2021/12/29 11:31:35;;;;;;;5.40;1.90;;;;;;;;;;5100630;28;20044;-91
2021/12/29 11:34:13;;;;;;;6.35;2.13;;;;;;;;;;5065943;28;20031;-91
2021/12/29 11:36:38;;;;;;;15.07;2.92;;;;;;;;;;5059272;28;20029;-89
2021/12/29 11:39:03;;;;;;;13.73;2.78;;;;;;;;;;5051964;28;20028;-90
2021/12/29 11:41:29;;;;;;;14.85;2.67;;;;;;;;;;5066160;28;20035;-91
2021/12/29 11:43:54;;;;;;;13.15;2.58;;;;;;;;;;5052136;28;20028;-91
2021/12/29 11:46:24;;;;;;;8.10;1.85;;;;;;;;;;5061722;28;20424;-91
2021/12/29 11:48:49;;;;;;;6.95;1.88;;;;;;;;;;5058888;28;20025;-91
2021/12/29 11:51:16;;;;;;;9.85;2.15;;;;;;;;;;5051765;28;20036;-91
2021/12/29 11:53:53;;;;;;;9.40;2.20;;;;;;;;;;5061649;28;20066;-90
2021/12/29 11:56:19;;;;;;;10.32;1.80;;;;;;;;;;5096658;28;20025;-90
2021/12/29 11:58:45;;;;;;;13.50;1.75;;;;;;;;;;5052484;28;20417;-91
2021/12/29 12:01:14;;;;;;;19.65;1.73;;;;;;;;;;5052528;28;20067;-89
2021/12/29 12:03:59;;;;;;;15.95;2.20;;;;;;;;;;5085843;28;20060;-91
2021/12/29 12:06:32;;;;;;;9.07;2.30;;;;;;;;;;5055889;28;20040;-91
2021/12/29 12:09:01;;;;;;;9.18;2.20;;;;;;;;;;5046578;28;20025;-90
2021/12/29 12:11:27;;;;;;;12.27;2.22;;;;;;;;;;5090136;28;20494;-90
2021/12/29 12:13:52;;;;;;;10.20;2.08;;;;;;;;;;5050378;28;20115;-91
2021/12/29 12:16:19;;;;;;;8.00;2.08;;;;;;;;;;5056156;28;20111;-91
2021/12/29 12:18:46;;;;;;;8.90;2.28;;;;;;;;;;5056360;28;20028;-91
2021/12/29 12:21:24;;;;;;;12.13;2.58;;;;;;;;;;5057428;28;20028;-90
2021/12/29 12:23:49;;;;;;;5.68;1.95;;;;;;;;;;5058793;28;20074;-90
2021/12/29 12:26:18;;;;;;;6.40;2.05;;;;;;;;;;5056674;28;20414;-90
2021/12/29 12:28:44;;;;;;;9.68;2.30;;;;;;;;;;5058075;28;20028;-91
2021/12/29 12:31:19;;;;;;;7.30;1.95;;;;;;;;;;5059547;28;20025;-91
2021/12/29 12:33:44;;;;;;;7.90;2.33;;;;;;;;;;5057093;28;20047;-90
2021/12/29 12:36:10;;;;;;;6.53;3.08;;;;;;;;;;5059973;28;20062;-88
2021/12/29 12:38:36;;;;;;;7.05;2.15;;;;;;;;;;5063299;28;20435;-90
2021/12/29 12:41:07;;;;;;;8.82;2.70;;;;;;;;;;5088217;28;20100;-90
2021/12/29 12:43:33;;;;;;;5.38;2.10;;;;;;;;;;5063087;28;20070;-90
2021/12/29 12:45:59;;;;;;;7.75;2.33;;;;;;;;;;5079338;28;20422;-89
2021/12/29 12:48:26;;;;;;;13.45;2.97;;;;;;;;;;5084761;28;20029;-92
2021/12/29 12:50:52;;;;;;;9.05;2.55;;;;;;;;;;5055260;28;20021;-91
2021/12/29 12:53:28;;;;;;;9.27;3.08;;;;;;;;;;5054117;28;20013;-91
2021/12/29 12:55:56;;;;;;;9.70;2.90;;;;;;;;;;5060206;28;20048;-91
2021/12/29 12:58:22;;;;;;;5.90;2.58;;;;;;;;;;5063299;28;20199;-91
2021/12/29 13:00:52;;;;;;;8.32;3.47;;;;;;;;;;5057150;28;20116;-92
2021/12/29 13:03:18;;;;;;;7.32;2.60;;;;;;;;;;5063708;28;20094;-91
2021/12/29 13:05:45;;;;;;;7.30;2.80;;;;;;;;;;5064419;28;20021;-91
2021/12/29 13:08:18;;;;;;;6.78;2.30;;;;;;;;;;5063514;28;20031;-93
2021/12/29 13:10:47;;;;;;;14.55;2.47;;;;;;;;;;5056276;28;20473;-90
2021/12/29 13:13:18;;;;;;;7.55;2.15;;;;;;;;;;5088984;28;20017;-91
2021/12/29 13:15:51;;;;;;;8.23;2.20;;;;;;;;;;5054923;28;20017;-92
2021/12/29 13:18:17;;;;;;;9.10;2.20;;;;;;;;;;5065725;28;20020;-91
2021/12/29 13:20:43;;;;;;;7.40;2.20;;;;;;;;;;5075201;28;20027;-92
2021/12/29 13:23:15;;;;;;;10.95;2.25;;;;;;;;;;5056591;28;20024;-91
2021/12/29 13:25:40;;;;;;;;;;;;;;;;;;5056093;28;20779;-90
2021/12/29 13:28:12;;;;;;;5.53;1.63;;;;;;;;;;5057143;28;19920;-89
2021/12/29 13:30:55;;;;;;;5.00;1.70;;;;;;;;;;5065349;28;20349;-90
2021/12/29 13:33:25;;;;;;;4.88;1.40;;;;;;;;;;5057163;28;20051;-91
2021/12/29 13:35:51;;;;;;;3.38;1.50;;;;;;;;;;5088007;28;20476;-89
2021/12/29 13:38:17;;;;;;;5.65;1.60;;;;;;;;;;5054780;28;20025;-90
2021/12/29 13:40:45;;;;;;;8.13;2.30;;;;;;;;;;5072507;28;20050;-92
2021/12/29 13:43:12;;;;;;;9.73;1.83;;;;;;;;;;5058829;28;20039;-90
2021/12/29 13:45:37;;;;;;;4.97;1.60;;;;;;;;;;5060800;28;20025;-90
2021/12/29 13:48:04;;;;;;;3.20;1.45;;;;;;;;;;5059497;28;20036;-90
2021/12/29 13:50:29;;;;;;;5.53;1.65;;;;;;;;;;5087927;28;20028;-91
2021/12/29 13:52:55;;;;;;;8.00;1.63;;;;;;;;;;5086463;28;20021;-90
2021/12/29 13:55:28;;;;;;;8.75;1.23;;;;;;;;;;5055562;28;20021;-90
2021/12/29 13:57:54;;;;;;;5.30;1.48;;;;;;;;;;5054436;28;20021;-89
2021/12/29 14:00:19;;;;;;;4.88;1.30;;;;;;;;;;5055503;28;20025;-90
2021/12/29 14:02:45;;;;;;;3.28;1.42;;;;;;;;;;5055416;28;20012;-89
2021/12/29 14:05:11;;;;;;;7.18;2.42;;;;;;;;;;5062490;28;20048;-90
2021/12/29 14:07:37;;;;;;;7.28;1.88;;;;;;;;;;5074243;28;20027;-89
2021/12/29 14:10:02;;;;;;;6.72;1.63;;;;;;;;;;5073976;28;20016;-89
2021/12/29 14:12:33;;;;;;;4.32;1.30;;;;;;;;;;5064740;28;20048;-89
2021/12/29 14:15:04;;;;;;;6.38;2.08;;;;;;;;;;5087333;28;20016;-90
2021/12/29 14:17:36;;;;;;;4.88;1.27;;;;;;;;;;5053789;28;20021;-89
2021/12/29 14:20:07;;;;;;;5.38;1.20;;;;;;;;;;5053890;28;20025;-91
2021/12/29 14:22:32;;;;;;;2.85;1.30;;;;;;;;;;5055465;28;20403;-88
2021/12/29 14:25:06;;;;;;;2.90;1.02;;;;;;;;;;5065369;28;20028;-90
2021/12/29 14:27:34;;;;;;;3.80;1.48;;;;;;;;;;5079353;28;20025;-87
2021/12/29 14:30:10;;;;;;;3.13;1.20;;;;;;;;;;5054950;28;20412;-88
2021/12/29 14:32:35;;;;;;;2.90;0.75;;;;;;;;;;5057363;28;20029;-89
2021/12/29 14:35:04;;;;;;;3.63;1.10;;;;;;;;;;5086961;28;20021;-90
2021/12/29 14:37:29;;;;;;;2.28;1.00;;;;;;;;;;5050754;28;20025;-89